createdAt,value
2017-12-28T00:00:03.046Z,976.42
2017-12-28T00:01:03.113Z,976.44
2017-12-28T00:02:03.064Z,976.42
2017-12-28T00:03:03.044Z,976.44
2017-12-28T00:04:03.136Z,976.41
2017-12-28T00:05:03.135Z,976.44
2017-12-28T00:06:03.139Z,976.43
2017-12-28T00:07:03.047Z,976.43
2017-12-28T00:08:03.134Z,976.43
2017-12-28T00:09:03.031Z,976.37
2017-12-28T00:10:03.093Z,976.42
2017-12-28T00:11:03.055Z,976.44
2017-12-28T00:12:03.049Z,976.44
2017-12-28T00:13:03.036Z,976.46
2017-12-28T00:14:03.058Z,976.46
2017-12-28T00:15:03.138Z,976.49
2017-12-28T00:16:03.019Z,976.47
2017-12-28T00:17:03.109Z,976.43
2017-12-28T00:18:03.079Z,976.42
2017-12-28T00:19:03.134Z,976.47
2017-12-28T00:20:03.078Z,976.50
2017-12-28T00:21:03.079Z,976.48
2017-12-28T00:22:03.083Z,976.44
2017-12-28T00:23:03.111Z,976.46
2017-12-28T00:24:03.115Z,976.46
2017-12-28T00:25:03.023Z,976.46
2017-12-28T00:26:03.157Z,976.41
2017-12-28T00:27:03.093Z,976.45
2017-12-28T00:28:03.165Z,976.46
2017-12-28T00:29:03.159Z,976.42
2017-12-28T00:30:03.096Z,976.48
2017-12-28T00:31:03.159Z,976.46
2017-12-28T00:32:03.098Z,976.41
2017-12-28T00:33:03.100Z,976.45
2017-12-28T00:34:03.163Z,976.46
2017-12-28T00:35:03.099Z,976.44
2017-12-28T00:36:03.089Z,976.47
2017-12-28T00:37:03.143Z,976.46
2017-12-28T00:38:03.058Z,976.45
2017-12-28T00:39:03.061Z,976.45
2017-12-28T00:40:03.032Z,976.46
2017-12-28T00:41:03.029Z,976.41
2017-12-28T00:42:03.060Z,976.42
2017-12-28T00:43:03.118Z,976.45
2017-12-28T00:44:03.091Z,976.48
2017-12-28T00:45:03.065Z,976.53
2017-12-28T00:46:03.103Z,976.54
2017-12-28T00:47:03.170Z,976.55
2017-12-28T00:48:03.103Z,976.57
2017-12-28T00:49:03.182Z,976.60
2017-12-28T00:50:03.329Z,976.57
2017-12-28T00:51:03.131Z,976.58
2017-12-28T00:52:03.172Z,976.60
2017-12-28T00:53:03.107Z,976.61
2017-12-28T00:54:03.179Z,976.62
2017-12-28T00:55:03.108Z,976.67
2017-12-28T00:56:03.105Z,976.68
2017-12-28T00:57:03.156Z,976.68
2017-12-28T00:58:03.069Z,976.73
2017-12-28T00:59:03.132Z,976.77
2017-12-28T01:00:03.077Z,976.77
2017-12-28T01:01:03.045Z,976.77
2017-12-28T01:02:03.080Z,976.80
2017-12-28T01:03:03.108Z,976.84
2017-12-28T01:04:03.107Z,976.84
2017-12-28T01:05:03.165Z,976.88
2017-12-28T01:06:03.171Z,976.87
2017-12-28T01:07:03.115Z,976.89
2017-12-28T01:08:03.066Z,976.92
2017-12-28T01:09:03.172Z,976.97
2017-12-28T01:10:03.120Z,977.03
2017-12-28T01:11:03.173Z,976.97
2017-12-28T01:12:03.109Z,976.99
2017-12-28T01:13:03.182Z,976.97
2017-12-28T01:14:03.171Z,977.02
2017-12-28T01:15:03.123Z,977.01
2017-12-28T01:16:03.120Z,977.08
2017-12-28T01:17:03.147Z,977.06
2017-12-28T01:18:03.174Z,977.04
2017-12-28T01:19:03.126Z,977.06
2017-12-28T01:20:03.127Z,977.13
2017-12-28T01:21:03.172Z,977.14
2017-12-28T01:22:03.148Z,977.14
2017-12-28T01:23:03.147Z,977.11
2017-12-28T01:24:03.179Z,977.17
2017-12-28T01:25:03.185Z,977.20
2017-12-28T01:26:03.132Z,977.20
2017-12-28T01:27:03.192Z,977.22
2017-12-28T01:28:03.133Z,977.20
2017-12-28T01:29:03.195Z,977.25
2017-12-28T01:30:03.126Z,977.27
2017-12-28T01:31:03.134Z,977.26
2017-12-28T01:32:03.201Z,977.31
2017-12-28T01:33:03.134Z,977.34
2017-12-28T01:34:03.138Z,977.35
2017-12-28T01:35:03.215Z,977.36
2017-12-28T01:36:03.195Z,977.36
2017-12-28T01:37:03.146Z,977.35
2017-12-28T01:38:03.102Z,977.39
2017-12-28T01:39:03.065Z,977.40
2017-12-28T01:40:03.196Z,977.44
2017-12-28T01:41:03.196Z,977.44
2017-12-28T01:42:03.149Z,977.41
2017-12-28T01:43:03.108Z,977.44
2017-12-28T01:44:03.093Z,977.47
2017-12-28T01:45:03.136Z,977.44
2017-12-28T01:46:03.159Z,977.54
2017-12-28T01:47:03.111Z,977.53
2017-12-28T01:48:03.112Z,977.54
2017-12-28T01:49:03.203Z,977.56
2017-12-28T01:50:03.113Z,977.58
2017-12-28T01:51:03.148Z,977.54
2017-12-28T01:52:03.205Z,977.60
2017-12-28T01:53:03.177Z,977.62
2017-12-28T01:54:03.096Z,977.63
2017-12-28T01:55:03.115Z,977.61
2017-12-28T01:56:03.201Z,977.61
2017-12-28T01:57:03.201Z,977.61
2017-12-28T01:58:03.120Z,977.58
2017-12-28T01:59:03.204Z,977.65
2017-12-28T02:00:03.100Z,977.65
2017-12-28T02:01:03.207Z,977.63
2017-12-28T02:02:03.145Z,977.60
2017-12-28T02:03:03.200Z,977.65
2017-12-28T02:04:03.200Z,977.62
2017-12-28T02:05:03.152Z,977.72
2017-12-28T02:06:03.154Z,977.72
2017-12-28T02:07:03.218Z,977.75
2017-12-28T02:08:03.151Z,977.78
2017-12-28T02:09:03.219Z,977.82
2017-12-28T02:10:03.153Z,977.81
2017-12-28T02:11:03.220Z,977.78
2017-12-28T02:12:03.149Z,977.76
2017-12-28T02:13:03.227Z,977.78
2017-12-28T02:14:03.153Z,977.82
2017-12-28T02:15:03.223Z,977.82
2017-12-28T02:16:03.160Z,977.78
2017-12-28T02:17:03.158Z,977.89
2017-12-28T02:18:03.115Z,977.88
2017-12-28T02:19:03.161Z,977.87
2017-12-28T02:20:03.225Z,977.86
2017-12-28T02:21:03.164Z,977.93
2017-12-28T02:22:03.173Z,977.93
2017-12-28T02:23:03.162Z,977.97
2017-12-28T02:24:03.228Z,978.00
2017-12-28T02:25:03.162Z,977.99
2017-12-28T02:26:03.169Z,977.96
2017-12-28T02:27:03.230Z,978.03
2017-12-28T02:28:03.232Z,978.13
2017-12-28T02:29:03.166Z,978.11
2017-12-28T02:30:03.236Z,978.14
2017-12-28T02:31:03.169Z,978.14
2017-12-28T02:32:03.165Z,978.14
2017-12-28T02:33:03.235Z,978.13
2017-12-28T02:34:03.170Z,978.27
2017-12-28T02:35:03.234Z,978.21
2017-12-28T02:36:03.168Z,978.22
2017-12-28T02:37:03.165Z,978.27
2017-12-28T02:38:03.238Z,978.20
2017-12-28T02:39:03.172Z,978.31
2017-12-28T02:40:03.241Z,978.29
2017-12-28T02:41:03.169Z,978.31
2017-12-28T02:42:03.191Z,978.33
2017-12-28T02:43:03.240Z,978.35
2017-12-28T02:44:03.244Z,978.29
2017-12-28T02:45:03.195Z,978.40
2017-12-28T02:46:03.198Z,978.45
2017-12-28T02:47:03.109Z,978.43
2017-12-28T02:48:03.203Z,978.44
2017-12-28T02:49:03.128Z,978.41
2017-12-28T02:50:03.113Z,978.46
2017-12-28T02:51:03.174Z,978.48
2017-12-28T02:52:03.105Z,978.49
2017-12-28T02:53:03.207Z,978.48
2017-12-28T02:54:03.174Z,978.55
2017-12-28T02:55:03.177Z,978.60
2017-12-28T02:56:03.202Z,978.64
2017-12-28T02:57:03.250Z,978.64
2017-12-28T02:58:03.248Z,978.60
2017-12-28T02:59:03.185Z,978.67
2017-12-28T03:00:03.186Z,978.67
2017-12-28T03:01:03.248Z,978.72
2017-12-28T03:02:03.257Z,978.69
2017-12-28T03:03:03.185Z,978.77
2017-12-28T03:04:03.253Z,978.79
2017-12-28T03:05:03.199Z,978.76
2017-12-28T03:06:03.253Z,978.82
2017-12-28T03:07:03.252Z,978.88
2017-12-28T03:08:03.185Z,978.88
2017-12-28T03:09:03.256Z,978.87
2017-12-28T03:10:03.191Z,978.85
2017-12-28T03:11:03.256Z,978.94
2017-12-28T03:12:03.257Z,978.97
2017-12-28T03:13:03.256Z,978.98
2017-12-28T03:14:03.257Z,979.02
2017-12-28T03:15:03.194Z,979.05
2017-12-28T03:16:03.218Z,979.06
2017-12-28T03:17:03.127Z,979.06
2017-12-28T03:18:03.191Z,979.09
2017-12-28T03:19:03.244Z,979.08
2017-12-28T03:20:03.216Z,979.14
2017-12-28T03:21:03.223Z,979.14
2017-12-28T03:22:03.250Z,979.13
2017-12-28T03:23:03.150Z,979.14
2017-12-28T03:24:03.212Z,979.16
2017-12-28T03:25:03.148Z,979.14
2017-12-28T03:26:03.195Z,979.18
2017-12-28T03:27:03.193Z,979.22
2017-12-28T03:28:03.257Z,979.21
2017-12-28T03:29:03.218Z,979.22
2017-12-28T03:30:03.273Z,979.20
2017-12-28T03:31:03.171Z,979.24
2017-12-28T03:32:03.130Z,979.21
2017-12-28T03:33:03.152Z,979.19
2017-12-28T03:34:03.259Z,979.26
2017-12-28T03:35:03.172Z,979.26
2017-12-28T03:36:03.172Z,979.25
2017-12-28T03:37:03.270Z,979.23
2017-12-28T03:38:03.171Z,979.21
2017-12-28T03:39:03.243Z,979.25
2017-12-28T03:40:03.158Z,979.19
2017-12-28T03:41:03.237Z,979.19
2017-12-28T03:42:03.159Z,979.15
2017-12-28T03:43:03.158Z,979.16
2017-12-28T03:44:03.203Z,979.16
2017-12-28T03:45:03.268Z,979.15
2017-12-28T03:46:03.211Z,979.16
2017-12-28T03:47:03.211Z,979.19
2017-12-28T03:48:03.279Z,979.24
2017-12-28T03:49:03.213Z,979.24
2017-12-28T03:50:03.211Z,979.25
2017-12-28T03:51:03.211Z,979.27
2017-12-28T03:52:03.283Z,979.30
2017-12-28T03:53:03.219Z,979.29
2017-12-28T03:54:03.282Z,979.37
2017-12-28T03:55:03.214Z,979.37
2017-12-28T03:56:03.221Z,979.37
2017-12-28T03:57:03.284Z,979.42
2017-12-28T03:58:03.212Z,979.37
2017-12-28T03:59:03.284Z,979.45
2017-12-28T04:00:03.263Z,979.46
2017-12-28T04:01:03.268Z,979.43
2017-12-28T04:02:03.222Z,979.49
2017-12-28T04:03:03.291Z,979.51
2017-12-28T04:04:03.220Z,979.52
2017-12-28T04:05:03.172Z,979.49
2017-12-28T04:06:03.221Z,979.54
2017-12-28T04:07:03.222Z,979.53
2017-12-28T04:08:03.233Z,979.52
2017-12-28T04:09:03.250Z,979.60
2017-12-28T04:10:03.291Z,979.58
2017-12-28T04:11:03.293Z,979.61
2017-12-28T04:12:03.224Z,979.59
2017-12-28T04:13:03.294Z,979.62
2017-12-28T04:14:03.228Z,979.64
2017-12-28T04:15:03.295Z,979.68
2017-12-28T04:16:03.159Z,979.69
2017-12-28T04:17:03.285Z,979.73
2017-12-28T04:18:03.246Z,979.74
2017-12-28T04:19:03.163Z,979.71
2017-12-28T04:20:03.251Z,979.73
2017-12-28T04:21:03.158Z,979.69
2017-12-28T04:22:03.228Z,979.73
2017-12-28T04:23:03.284Z,979.78
2017-12-28T04:24:03.226Z,979.77
2017-12-28T04:25:03.167Z,979.76
2017-12-28T04:26:03.183Z,979.79
2017-12-28T04:27:03.251Z,979.80
2017-12-28T04:28:03.251Z,979.81
2017-12-28T04:29:03.289Z,979.85
2017-12-28T04:30:03.210Z,979.88
2017-12-28T04:31:03.212Z,979.88
2017-12-28T04:32:03.206Z,979.93
2017-12-28T04:33:03.305Z,979.95
2017-12-28T04:34:03.241Z,979.95
2017-12-28T04:35:03.214Z,980.00
2017-12-28T04:36:03.253Z,980.01
2017-12-28T04:37:03.308Z,980.06
2017-12-28T04:38:03.246Z,980.02
2017-12-28T04:39:03.308Z,980.09
2017-12-28T04:40:03.242Z,980.07
2017-12-28T04:41:03.243Z,980.06
2017-12-28T04:42:03.244Z,980.12
2017-12-28T04:43:03.278Z,980.12
2017-12-28T04:44:03.250Z,980.14
2017-12-28T04:45:03.242Z,980.18
2017-12-28T04:46:03.315Z,980.22
2017-12-28T04:47:03.193Z,980.23
2017-12-28T04:48:03.221Z,980.31
2017-12-28T04:49:03.189Z,980.35
2017-12-28T04:50:03.218Z,980.37
2017-12-28T04:51:03.123Z,980.36
2017-12-28T04:52:03.179Z,980.40
2017-12-28T04:53:03.120Z,980.42
2017-12-28T04:54:03.221Z,980.44
2017-12-28T04:55:03.180Z,980.45
2017-12-28T04:56:03.126Z,980.49
2017-12-28T04:57:03.265Z,980.46
2017-12-28T04:58:03.321Z,980.51
2017-12-28T04:59:03.225Z,980.49
2017-12-28T05:00:03.223Z,980.55
2017-12-28T05:01:03.223Z,980.55
2017-12-28T05:02:03.320Z,980.63
2017-12-28T05:03:03.252Z,980.61
2017-12-28T05:04:03.227Z,980.63
2017-12-28T05:05:03.322Z,980.65
2017-12-28T05:06:03.260Z,980.67
2017-12-28T05:07:03.343Z,980.72
2017-12-28T05:08:03.328Z,980.71
2017-12-28T05:09:03.261Z,980.70
2017-12-28T05:10:03.341Z,980.74
2017-12-28T05:11:03.260Z,980.76
2017-12-28T05:12:03.331Z,980.73
2017-12-28T05:13:03.264Z,980.74
2017-12-28T05:14:03.329Z,980.76
2017-12-28T05:15:03.269Z,980.78
2017-12-28T05:16:03.337Z,980.79
2017-12-28T05:17:03.323Z,980.80
2017-12-28T05:18:03.213Z,980.83
2017-12-28T05:19:03.218Z,980.80
2017-12-28T05:20:03.217Z,980.87
2017-12-28T05:21:03.238Z,980.85
2017-12-28T05:22:03.266Z,980.90
2017-12-28T05:23:03.328Z,980.91
2017-12-28T05:24:03.329Z,980.90
2017-12-28T05:25:03.336Z,980.91
2017-12-28T05:26:03.220Z,980.96
2017-12-28T05:27:03.338Z,980.94
2017-12-28T05:28:03.341Z,980.95
2017-12-28T05:29:03.344Z,980.94
2017-12-28T05:30:03.342Z,981.00
2017-12-28T05:31:03.340Z,981.04
2017-12-28T05:32:03.273Z,981.01
2017-12-28T05:33:03.341Z,981.05
2017-12-28T05:34:03.278Z,981.07
2017-12-28T05:35:03.344Z,981.14
2017-12-28T05:36:03.278Z,981.09
2017-12-28T05:37:03.345Z,981.12
2017-12-28T05:38:03.305Z,981.18
2017-12-28T05:39:03.346Z,981.19
2017-12-28T05:40:03.291Z,981.21
2017-12-28T05:41:03.277Z,981.20
2017-12-28T05:42:03.345Z,981.25
2017-12-28T05:43:03.283Z,981.24
2017-12-28T05:44:03.348Z,981.25
2017-12-28T05:45:03.286Z,981.23
2017-12-28T05:46:03.408Z,981.23
2017-12-28T05:47:03.354Z,981.26
2017-12-28T05:48:03.282Z,981.25
2017-12-28T05:49:03.284Z,981.23
2017-12-28T05:50:03.355Z,981.23
2017-12-28T05:51:03.285Z,981.22
2017-12-28T05:52:03.321Z,981.23
2017-12-28T05:53:03.353Z,981.25
2017-12-28T05:54:03.293Z,981.27
2017-12-28T05:55:03.358Z,981.30
2017-12-28T05:56:03.288Z,981.26
2017-12-28T05:57:03.295Z,981.27
2017-12-28T05:58:03.361Z,981.27
2017-12-28T05:59:03.358Z,981.33
2017-12-28T06:00:03.294Z,981.34
2017-12-28T06:01:03.401Z,981.32
2017-12-28T06:02:03.295Z,981.36
2017-12-28T06:03:03.359Z,981.36
2017-12-28T06:04:03.294Z,981.44
2017-12-28T06:05:03.297Z,981.43
2017-12-28T06:06:03.293Z,981.43
2017-12-28T06:07:03.265Z,981.41
2017-12-28T06:08:03.364Z,981.45
2017-12-28T06:09:03.229Z,981.46
2017-12-28T06:10:03.335Z,981.52
2017-12-28T06:11:03.311Z,981.57
2017-12-28T06:12:03.251Z,981.49
2017-12-28T06:13:03.388Z,981.48
2017-12-28T06:14:03.349Z,981.55
2017-12-28T06:15:03.353Z,981.55
2017-12-28T06:16:03.315Z,981.57
2017-12-28T06:17:03.296Z,981.55
2017-12-28T06:18:03.371Z,981.57
2017-12-28T06:19:03.370Z,981.61
2017-12-28T06:20:03.300Z,981.60
2017-12-28T06:21:03.300Z,981.60
2017-12-28T06:22:03.307Z,981.58
2017-12-28T06:23:03.371Z,981.61
2017-12-28T06:24:03.309Z,981.57
2017-12-28T06:25:03.305Z,981.63
2017-12-28T06:26:03.373Z,981.61
2017-12-28T06:27:03.305Z,981.67
2017-12-28T06:28:03.374Z,981.61
2017-12-28T06:29:03.375Z,981.62
2017-12-28T06:30:03.308Z,981.60
2017-12-28T06:31:03.393Z,981.60
2017-12-28T06:32:03.312Z,981.66
2017-12-28T06:33:03.379Z,981.68
2017-12-28T06:34:03.308Z,981.71
2017-12-28T06:35:03.390Z,981.71
2017-12-28T06:36:03.382Z,981.74
2017-12-28T06:37:03.377Z,981.74
2017-12-28T06:38:03.441Z,981.74
2017-12-28T06:39:03.339Z,981.74
2017-12-28T06:40:03.313Z,981.74
2017-12-28T06:41:03.287Z,981.84
2017-12-28T06:42:03.285Z,981.87
2017-12-28T06:43:03.287Z,981.87
2017-12-28T06:44:03.373Z,981.92
2017-12-28T06:45:03.373Z,981.92
2017-12-28T06:46:03.290Z,981.89
2017-12-28T06:47:03.309Z,981.93
2017-12-28T06:48:03.312Z,981.91
2017-12-28T06:49:03.312Z,981.93
2017-12-28T06:50:03.275Z,982.00
2017-12-28T06:51:03.320Z,981.98
2017-12-28T06:52:03.317Z,982.01
2017-12-28T06:53:03.280Z,982.01
2017-12-28T06:54:03.351Z,982.02
2017-12-28T06:55:03.337Z,982.08
2017-12-28T06:56:03.323Z,982.07
2017-12-28T06:57:03.404Z,982.14
2017-12-28T06:58:03.322Z,982.15
2017-12-28T06:59:03.397Z,982.15
2017-12-28T07:00:03.330Z,982.17
2017-12-28T07:01:03.328Z,982.16
2017-12-28T07:02:03.394Z,982.24
2017-12-28T07:03:03.329Z,982.24
2017-12-28T07:04:03.331Z,982.24
2017-12-28T07:05:03.395Z,982.30
2017-12-28T07:06:03.327Z,982.31
2017-12-28T07:07:03.305Z,982.34
2017-12-28T07:08:03.218Z,982.36
2017-12-28T07:09:03.335Z,982.38
2017-12-28T07:10:03.213Z,982.41
2017-12-28T07:11:03.261Z,982.40
2017-12-28T07:12:03.262Z,982.39
2017-12-28T07:13:03.336Z,982.41
2017-12-28T07:14:03.322Z,982.34
2017-12-28T07:15:03.265Z,982.38
2017-12-28T07:16:03.224Z,982.43
2017-12-28T07:17:03.330Z,982.43
2017-12-28T07:18:03.403Z,982.46
2017-12-28T07:19:03.340Z,982.45
2017-12-28T07:20:03.406Z,982.50
2017-12-28T07:21:03.341Z,982.48
2017-12-28T07:22:03.344Z,982.50
2017-12-28T07:23:03.339Z,982.53
2017-12-28T07:24:03.408Z,982.56
2017-12-28T07:25:03.291Z,982.54
2017-12-28T07:26:03.335Z,982.58
2017-12-28T07:27:03.409Z,982.59
2017-12-28T07:28:03.339Z,982.60
2017-12-28T07:29:03.344Z,982.61
2017-12-28T07:30:03.417Z,982.64
2017-12-28T07:31:03.344Z,982.69
2017-12-28T07:32:03.474Z,982.70
2017-12-28T07:33:03.415Z,982.74
2017-12-28T07:34:03.349Z,982.72
2017-12-28T07:35:03.413Z,982.71
2017-12-28T07:36:03.346Z,982.74
2017-12-28T07:37:03.348Z,982.75
2017-12-28T07:38:03.351Z,982.76
2017-12-28T07:39:03.348Z,982.81
2017-12-28T07:40:03.416Z,982.78
2017-12-28T07:41:03.349Z,982.80
2017-12-28T07:42:03.352Z,982.82
2017-12-28T07:43:03.348Z,982.76
2017-12-28T07:44:03.422Z,982.76
2017-12-28T07:45:03.351Z,982.80
2017-12-28T07:46:03.421Z,982.74
2017-12-28T07:47:03.278Z,982.81
2017-12-28T07:48:03.376Z,982.81
2017-12-28T07:49:03.307Z,982.78
2017-12-28T07:50:03.284Z,982.81
2017-12-28T07:51:03.372Z,982.88
2017-12-28T07:52:03.353Z,982.85
2017-12-28T07:53:03.375Z,982.85
2017-12-28T07:54:03.298Z,982.89
2017-12-28T07:55:03.283Z,982.90
2017-12-28T07:56:03.387Z,982.95
2017-12-28T07:57:03.310Z,982.93
2017-12-28T07:58:03.373Z,982.89
2017-12-28T07:59:03.311Z,982.93
2017-12-28T08:00:03.393Z,982.92
2017-12-28T08:01:03.289Z,982.95
2017-12-28T08:02:03.374Z,982.97
2017-12-28T08:03:03.312Z,983.02
2017-12-28T08:04:03.376Z,983.01
2017-12-28T08:05:03.296Z,983.06
2017-12-28T08:06:03.310Z,983.12
2017-12-28T08:07:03.397Z,983.08
2017-12-28T08:08:03.493Z,983.05
2017-12-28T08:09:03.378Z,983.05
2017-12-28T08:10:03.334Z,983.12
2017-12-28T08:11:03.424Z,983.09
2017-12-28T08:12:03.361Z,983.09
2017-12-28T08:13:03.426Z,983.14
2017-12-28T08:14:03.424Z,983.09
2017-12-28T08:15:03.400Z,983.09
2017-12-28T08:16:03.340Z,983.07
2017-12-28T08:17:03.447Z,983.09
2017-12-28T08:18:03.370Z,983.12
2017-12-28T08:19:03.441Z,983.12
2017-12-28T08:20:03.378Z,983.14
2017-12-28T08:21:03.442Z,983.14
2017-12-28T08:22:03.373Z,983.18
2017-12-28T08:23:03.445Z,983.19
2017-12-28T08:24:03.374Z,983.25
2017-12-28T08:25:03.453Z,983.22
2017-12-28T08:26:03.372Z,983.25
2017-12-28T08:27:03.260Z,983.27
2017-12-28T08:28:03.261Z,983.32
2017-12-28T08:29:03.352Z,983.28
2017-12-28T08:30:03.371Z,983.27
2017-12-28T08:31:03.262Z,983.29
2017-12-28T08:32:03.354Z,983.30
2017-12-28T08:33:03.358Z,983.30
2017-12-28T08:34:03.355Z,983.34
2017-12-28T08:35:03.364Z,983.32
2017-12-28T08:36:03.357Z,983.37
2017-12-28T08:37:03.398Z,983.40
2017-12-28T08:38:03.311Z,983.36
2017-12-28T08:39:03.339Z,983.43
2017-12-28T08:40:03.380Z,983.43
2017-12-28T08:41:03.399Z,983.49
2017-12-28T08:42:03.391Z,983.44
2017-12-28T08:43:03.403Z,983.46
2017-12-28T08:44:03.432Z,983.48
2017-12-28T08:45:03.381Z,983.50
2017-12-28T08:46:03.436Z,983.49
2017-12-28T08:47:03.333Z,983.49
2017-12-28T08:48:03.442Z,983.48
2017-12-28T08:49:03.407Z,983.53
2017-12-28T08:50:03.354Z,983.60
2017-12-28T08:51:03.357Z,983.61
2017-12-28T08:52:03.444Z,983.57
2017-12-28T08:53:03.408Z,983.60
2017-12-28T08:54:03.322Z,983.67
2017-12-28T08:55:03.407Z,983.63
2017-12-28T08:56:03.344Z,983.59
2017-12-28T08:57:03.469Z,983.67
2017-12-28T08:58:03.392Z,983.71
2017-12-28T08:59:03.464Z,983.74
2017-12-28T09:00:03.398Z,983.78
2017-12-28T09:01:03.466Z,983.79
2017-12-28T09:02:03.466Z,983.77
2017-12-28T09:03:03.394Z,983.83
2017-12-28T09:04:03.466Z,983.84
2017-12-28T09:05:03.474Z,983.87
2017-12-28T09:06:03.393Z,983.91
2017-12-28T09:07:03.471Z,983.91
2017-12-28T09:08:03.394Z,983.93
2017-12-28T09:09:03.471Z,983.99
2017-12-28T09:10:03.419Z,984.01
2017-12-28T09:11:03.473Z,984.02
2017-12-28T09:12:03.427Z,984.05
2017-12-28T09:13:03.474Z,984.11
2017-12-28T09:14:03.490Z,984.08
2017-12-28T09:15:03.402Z,984.06
2017-12-28T09:16:03.477Z,984.10
2017-12-28T09:17:03.403Z,984.17
2017-12-28T09:18:03.470Z,984.15
2017-12-28T09:19:03.407Z,984.18
2017-12-28T09:20:03.472Z,984.22
2017-12-28T09:21:03.413Z,984.24
2017-12-28T09:22:03.477Z,984.24
2017-12-28T09:23:03.416Z,984.28
2017-12-28T09:24:03.481Z,984.33
2017-12-28T09:25:03.416Z,984.32
2017-12-28T09:26:03.478Z,984.32
2017-12-28T09:27:03.417Z,984.34
2017-12-28T09:28:03.413Z,984.38
2017-12-28T09:29:03.487Z,984.41
2017-12-28T09:30:03.415Z,984.35
2017-12-28T09:31:03.487Z,984.42
2017-12-28T09:32:03.411Z,984.43
2017-12-28T09:33:03.416Z,984.47
2017-12-28T09:34:03.485Z,984.47
2017-12-28T09:35:03.417Z,984.48
2017-12-28T09:36:03.418Z,984.51
2017-12-28T09:37:03.486Z,984.55
2017-12-28T09:38:03.414Z,984.54
2017-12-28T09:39:03.484Z,984.56
2017-12-28T09:40:03.417Z,984.55
2017-12-28T09:41:03.489Z,984.57
2017-12-28T09:42:03.420Z,984.59
2017-12-28T09:43:03.491Z,984.58
2017-12-28T09:44:03.424Z,984.61
2017-12-28T09:45:03.495Z,984.66
2017-12-28T09:46:03.424Z,984.59
2017-12-28T09:47:03.466Z,984.64
2017-12-28T09:48:03.419Z,984.64
2017-12-28T09:49:03.394Z,984.65
2017-12-28T09:50:03.456Z,984.66
2017-12-28T09:51:03.481Z,984.66
2017-12-28T09:52:03.458Z,984.70
2017-12-28T09:53:03.380Z,984.76
2017-12-28T09:54:03.486Z,984.82
2017-12-28T09:55:03.484Z,984.86
2017-12-28T09:56:03.397Z,984.85
2017-12-28T09:57:03.431Z,984.85
2017-12-28T09:58:03.497Z,984.86
2017-12-28T09:59:03.427Z,984.93
2017-12-28T10:00:03.499Z,984.88
2017-12-28T10:01:03.433Z,984.86
2017-12-28T10:02:03.532Z,984.87
2017-12-28T10:03:03.431Z,984.90
2017-12-28T10:04:03.384Z,984.88
2017-12-28T10:05:03.504Z,984.89
2017-12-28T10:06:03.435Z,984.93
2017-12-28T10:07:03.507Z,984.99
2017-12-28T10:08:03.446Z,984.99
2017-12-28T10:09:03.508Z,985.00
2017-12-28T10:10:03.442Z,985.04
2017-12-28T10:11:03.507Z,984.98
2017-12-28T10:12:03.438Z,985.07
2017-12-28T10:13:03.546Z,985.08
2017-12-28T10:14:03.440Z,985.08
2017-12-28T10:15:03.508Z,985.08
2017-12-28T10:16:03.437Z,985.06
2017-12-28T10:17:03.480Z,985.05
2017-12-28T10:18:03.415Z,985.04
2017-12-28T10:19:03.391Z,985.02
2017-12-28T10:20:03.416Z,985.10
2017-12-28T10:21:03.457Z,985.12
2017-12-28T10:22:03.395Z,985.09
2017-12-28T10:23:03.515Z,985.08
2017-12-28T10:24:03.502Z,985.10
2017-12-28T10:25:03.397Z,985.12
2017-12-28T10:26:03.400Z,985.07
2017-12-28T10:27:03.445Z,985.08
2017-12-28T10:28:03.445Z,985.14
2017-12-28T10:29:03.444Z,985.10
2017-12-28T10:30:03.464Z,985.17
2017-12-28T10:31:03.480Z,985.20
2017-12-28T10:32:03.474Z,985.21
2017-12-28T10:33:03.451Z,985.25
2017-12-28T10:34:03.372Z,985.22
2017-12-28T10:35:03.421Z,985.23
2017-12-28T10:36:03.465Z,985.25
2017-12-28T10:37:03.471Z,985.27
2017-12-28T10:38:03.432Z,985.32
2017-12-28T10:39:03.381Z,985.30
2017-12-28T10:40:03.385Z,985.31
2017-12-28T10:41:03.381Z,985.30
2017-12-28T10:42:03.409Z,985.27
2017-12-28T10:43:03.490Z,985.30
2017-12-28T10:44:03.429Z,985.33
2017-12-28T10:45:03.397Z,985.33
2017-12-28T10:46:03.384Z,985.36
2017-12-28T10:47:03.464Z,985.40
2017-12-28T10:48:03.529Z,985.41
2017-12-28T10:49:03.459Z,985.43
2017-12-28T10:50:03.530Z,985.45
2017-12-28T10:51:03.455Z,985.47
2017-12-28T10:52:03.569Z,985.44
2017-12-28T10:53:03.533Z,985.45
2017-12-28T10:54:03.460Z,985.50
2017-12-28T10:55:03.535Z,985.52
2017-12-28T10:56:03.462Z,985.57
2017-12-28T10:57:03.496Z,985.56
2017-12-28T10:58:03.520Z,985.53
2017-12-28T10:59:03.434Z,985.61
2017-12-28T11:00:03.502Z,985.58
2017-12-28T11:01:03.481Z,985.62
2017-12-28T11:02:03.465Z,985.58
2017-12-28T11:03:03.485Z,985.57
2017-12-28T11:04:03.450Z,985.60
2017-12-28T11:05:03.483Z,985.60
2017-12-28T11:06:03.403Z,985.62
2017-12-28T11:07:03.364Z,985.62
2017-12-28T11:08:03.353Z,985.66
2017-12-28T11:09:03.368Z,985.68
2017-12-28T11:10:03.359Z,985.70
2017-12-28T11:11:03.367Z,985.69
2017-12-28T11:12:03.406Z,985.71
2017-12-28T11:13:03.476Z,985.67
2017-12-28T11:14:03.358Z,985.69
2017-12-28T11:15:03.357Z,985.71
2017-12-28T11:16:03.363Z,985.70
2017-12-28T11:17:03.480Z,985.77
2017-12-28T11:18:03.482Z,985.69
2017-12-28T11:19:03.548Z,985.73
2017-12-28T11:20:03.483Z,985.73
2017-12-28T11:21:03.560Z,985.75
2017-12-28T11:22:03.482Z,985.76
2017-12-28T11:23:03.551Z,985.78
2017-12-28T11:24:03.559Z,985.78
2017-12-28T11:25:03.479Z,985.83
2017-12-28T11:26:03.488Z,985.80
2017-12-28T11:27:03.553Z,985.84
2017-12-28T11:28:03.481Z,985.82
2017-12-28T11:29:03.554Z,985.81
2017-12-28T11:30:03.484Z,985.80
2017-12-28T11:31:03.556Z,985.84
2017-12-28T11:32:03.509Z,985.86
2017-12-28T11:33:03.557Z,985.81
2017-12-28T11:34:03.490Z,985.81
2017-12-28T11:35:03.491Z,985.83
2017-12-28T11:36:03.560Z,985.84
2017-12-28T11:37:03.485Z,985.87
2017-12-28T11:38:03.493Z,985.90
2017-12-28T11:39:03.593Z,985.92
2017-12-28T11:40:03.487Z,985.94
2017-12-28T11:41:03.489Z,986.02
2017-12-28T11:42:03.563Z,985.98
2017-12-28T11:43:03.492Z,985.97
2017-12-28T11:44:03.565Z,985.99
2017-12-28T11:45:03.494Z,986.03
2017-12-28T11:46:03.562Z,986.06
2017-12-28T11:47:03.494Z,986.01
2017-12-28T11:48:03.565Z,986.01
2017-12-28T11:49:03.540Z,986.01
2017-12-28T11:50:03.476Z,986.03
2017-12-28T11:51:03.529Z,986.03
2017-12-28T11:52:03.536Z,986.04
2017-12-28T11:53:03.556Z,986.04
2017-12-28T11:54:03.556Z,986.05
2017-12-28T11:55:03.537Z,986.09
2017-12-28T11:56:03.481Z,986.02
2017-12-28T11:57:03.559Z,986.05
2017-12-28T11:58:03.419Z,986.05
2017-12-28T11:59:03.515Z,986.06
2017-12-28T12:00:03.508Z,986.06
2017-12-28T12:01:03.397Z,986.01
2017-12-28T12:02:03.521Z,986.03
2017-12-28T12:03:03.458Z,986.11
2017-12-28T12:04:03.467Z,986.12
2017-12-28T12:05:03.450Z,986.11
2017-12-28T12:06:03.516Z,986.04
2017-12-28T12:07:03.458Z,986.15
2017-12-28T12:08:03.579Z,986.12
2017-12-28T12:09:03.508Z,986.15
2017-12-28T12:10:03.579Z,986.24
2017-12-28T12:11:03.509Z,986.27
2017-12-28T12:12:03.581Z,986.18
2017-12-28T12:13:03.459Z,986.20
2017-12-28T12:14:03.512Z,986.22
2017-12-28T12:15:03.580Z,986.27
2017-12-28T12:16:03.511Z,986.21
2017-12-28T12:17:03.584Z,986.22
2017-12-28T12:18:03.461Z,986.18
2017-12-28T12:19:03.556Z,986.21
2017-12-28T12:21:03.547Z,986.26
2017-12-28T12:22:03.527Z,986.23
2017-12-28T12:23:03.464Z,986.26
2017-12-28T12:24:03.579Z,986.29
2017-12-28T12:25:03.466Z,986.27
2017-12-28T12:26:03.533Z,986.29
2017-12-28T12:27:03.489Z,986.32
2017-12-28T12:28:03.495Z,986.33
2017-12-28T12:29:03.441Z,986.33